createdAt,value
2023-05-08T00:00:47.556Z,100878.02
2023-05-08T00:03:14.335Z,100869.83
2023-05-08T00:05:44.067Z,100864.05
2023-05-08T00:08:10.742Z,100860.72
2023-05-08T00:10:37.321Z,100859.17
2023-05-08T00:13:04.186Z,100862.25
2023-05-08T00:15:30.921Z,100861.47
2023-05-08T00:17:57.596Z,100862.32
2023-05-08T00:20:24.454Z,100856.41
2023-05-08T00:22:51.041Z,100854.40
2023-05-08T00:25:17.780Z,100853.21
2023-05-08T00:27:44.400Z,100849.45
2023-05-08T00:30:11.657Z,100850.52
2023-05-08T00:32:38.563Z,100844.68
2023-05-08T00:35:06.084Z,100843.14
2023-05-08T00:37:32.697Z,100837.61
2023-05-08T00:39:59.329Z,100841.52
2023-05-08T00:42:26.008Z,100842.45
2023-05-08T00:44:52.601Z,100837.89
2023-05-08T00:47:22.561Z,100831.20
2023-05-08T00:49:49.849Z,100827.95
2023-05-08T00:52:17.874Z,100819.80
2023-05-08T00:54:45.236Z,100819.07
2023-05-08T00:57:12.597Z,100817.69
2023-05-08T00:59:41.597Z,100813.88
2023-05-08T01:02:09.967Z,100813.47
2023-05-08T01:04:37.226Z,100815.84
2023-05-08T01:07:03.879Z,100821.59
2023-05-08T01:09:30.547Z,100817.88
2023-05-08T01:12:40.756Z,100814.88
2023-05-08T01:15:24.054Z,100817.37
2023-05-08T01:18:28.112Z,100819.69
2023-05-08T01:21:07.089Z,100822.06
2023-05-08T01:24:12.084Z,100819.33
2023-05-08T01:27:00.600Z,100820.52
2023-05-08T01:30:08.912Z,100820.45
2023-05-08T01:32:43.794Z,100818.55
2023-05-08T01:35:40.755Z,100820.98
2023-05-08T01:38:13.176Z,100815.05
2023-05-08T01:41:01.626Z,100814.14
2023-05-08T01:43:42.453Z,100814.34
2023-05-08T01:46:14.820Z,100813.98
2023-05-08T01:48:50.757Z,100816.48
2023-05-08T01:51:21.822Z,100816.33
2023-05-08T01:53:58.608Z,100815.68
2023-05-08T01:56:28.649Z,100811.20
2023-05-08T01:58:58.171Z,100806.88
2023-05-08T02:01:26.358Z,100805.52
2023-05-08T02:03:56.663Z,100799.07
2023-05-08T02:06:26.887Z,100794.55
2023-05-08T02:08:55.448Z,100791.99
2023-05-08T02:11:25.037Z,100793.06
2023-05-08T02:13:54.007Z,100793.81
2023-05-08T02:16:22.169Z,100793.10
2023-05-08T02:18:53.194Z,100790.64
2023-05-08T02:21:22.408Z,100790.56
2023-05-08T02:23:51.196Z,100788.64
2023-05-08T02:26:19.357Z,100787.34
2023-05-08T02:28:47.270Z,100787.85
2023-05-08T02:31:14.533Z,100790.38
2023-05-08T02:33:42.662Z,100790.27
2023-05-08T02:36:13.244Z,100793.25
2023-05-08T02:38:44.182Z,100795.85
2023-05-08T02:41:14.311Z,100790.13
2023-05-08T02:43:42.243Z,100791.45
2023-05-08T02:46:39.681Z,100793.46
2023-05-08T02:49:26.837Z,100800.15
2023-05-08T02:52:00.062Z,100803.23
2023-05-08T02:54:44.415Z,100814.00
2023-05-08T02:57:22.155Z,100821.69
2023-05-08T02:59:59.616Z,100824.11
2023-05-08T03:02:28.072Z,100824.82
2023-05-08T03:04:59.588Z,100828.48
2023-05-08T03:07:29.076Z,100834.94
2023-05-08T03:10:03.071Z,100838.21
2023-05-08T03:12:32.854Z,100840.16
2023-05-08T03:15:24.127Z,100841.96
2023-05-08T03:17:54.965Z,100842.74
2023-05-08T03:20:24.998Z,100843.38
2023-05-08T03:22:55.523Z,100841.32
2023-05-08T03:25:23.317Z,100844.42
2023-05-08T03:27:52.097Z,100840.23
2023-05-08T03:30:20.681Z,100837.92
2023-05-08T03:32:58.828Z,100842.61
2023-05-08T03:35:27.261Z,100848.13
2023-05-08T03:37:54.926Z,100850.65
2023-05-08T03:40:21.902Z,100848.19
2023-05-08T03:42:49.969Z,100846.77
2023-05-08T03:45:18.938Z,100851.70
2023-05-08T03:47:47.777Z,100862.30
2023-05-08T03:50:15.841Z,100864.33
2023-05-08T03:52:43.449Z,100871.54
2023-05-08T03:55:10.449Z,100869.38
2023-05-08T03:57:49.248Z,100874.06
2023-05-08T04:00:29.303Z,100879.38
2023-05-08T04:03:05.333Z,100888.48
2023-05-08T04:05:37.851Z,100894.96
2023-05-08T04:08:29.129Z,100900.96
2023-05-08T04:11:10.067Z,100912.15
2023-05-08T04:13:46.019Z,100917.31
2023-05-08T04:16:20.214Z,100928.06
2023-05-08T04:18:49.755Z,100936.95
2023-05-08T04:21:23.175Z,100941.48
2023-05-08T04:23:51.582Z,100948.94
2023-05-08T04:26:19.571Z,100952.95
2023-05-08T04:28:47.494Z,100962.00
2023-05-08T04:31:16.558Z,100969.20
2023-05-08T04:33:45.146Z,100972.57
2023-05-08T04:36:13.686Z,100975.95
2023-05-08T04:38:41.613Z,100977.82
2023-05-08T04:41:08.708Z,100981.91
2023-05-08T04:43:38.582Z,100988.08
2023-05-08T04:46:06.479Z,100990.15
2023-05-08T04:48:34.078Z,100993.95
2023-05-08T04:51:01.184Z,100999.17
2023-05-08T04:53:28.279Z,100999.45
2023-05-08T04:55:55.030Z,101002.68
2023-05-08T04:58:22.062Z,101006.86
2023-05-08T05:00:49.112Z,101007.42
2023-05-08T05:03:15.914Z,101011.35
2023-05-08T05:05:42.824Z,101012.73
2023-05-08T05:08:09.664Z,101012.55
2023-05-08T05:10:39.610Z,101014.44
2023-05-08T05:13:06.436Z,101015.48
2023-05-08T05:15:33.179Z,101013.23
2023-05-08T05:18:00.114Z,101015.59
2023-05-08T05:20:27.011Z,101019.93
2023-05-08T05:22:53.703Z,101019.95
2023-05-08T05:25:20.390Z,101023.13
2023-05-08T05:27:47.187Z,101021.27
2023-05-08T05:30:14.259Z,101020.02
2023-05-08T05:32:41.585Z,101019.27
2023-05-08T05:35:09.939Z,101021.52
2023-05-08T05:37:37.280Z,101019.18
2023-05-08T05:40:04.511Z,101019.29
2023-05-08T05:42:31.660Z,101016.94
2023-05-08T05:44:59.130Z,101012.73
2023-05-08T05:47:25.951Z,101011.45
2023-05-08T05:49:52.681Z,101011.46
2023-05-08T05:52:19.507Z,101013.58
2023-05-08T05:54:46.804Z,101014.05
2023-05-08T05:57:14.141Z,101013.67
2023-05-08T05:59:41.588Z,101011.18
2023-05-08T06:02:10.622Z,101010.13
2023-05-08T06:04:38.127Z,101009.15
2023-05-08T06:07:07.002Z,101004.40
2023-05-08T06:09:33.709Z,101005.93
2023-05-08T06:12:00.618Z,101002.44
2023-05-08T06:14:27.269Z,101000.11
2023-05-08T06:16:53.967Z,101004.27
2023-05-08T06:19:20.686Z,101007.52
2023-05-08T06:21:47.255Z,101004.33
2023-05-08T06:24:13.890Z,101003.12
2023-05-08T06:26:40.546Z,101002.61
2023-05-08T06:29:07.189Z,101003.39
2023-05-08T06:31:33.857Z,101003.50
2023-05-08T06:34:00.525Z,101008.41
2023-05-08T06:36:27.366Z,101009.86
2023-05-08T06:38:54.081Z,101007.22
2023-05-08T06:41:21.959Z,101007.36
2023-05-08T06:43:48.641Z,101009.61
2023-05-08T06:46:16.234Z,101013.11
2023-05-08T06:48:42.883Z,101015.87
2023-05-08T06:51:09.453Z,101018.50
2023-05-08T06:53:36.099Z,101017.20
2023-05-08T06:56:02.696Z,101018.16
2023-05-08T06:58:31.475Z,101015.58
2023-05-08T07:01:01.882Z,101019.00
2023-05-08T07:03:28.600Z,101018.00
2023-05-08T07:05:55.829Z,101019.38
2023-05-08T07:08:22.556Z,101019.09
2023-05-08T07:10:49.404Z,101016.16
2023-05-08T07:13:20.219Z,101020.62
2023-05-08T07:15:47.169Z,101023.63
2023-05-08T07:18:14.302Z,101024.63
2023-05-08T07:20:41.024Z,101029.08
2023-05-08T07:23:07.802Z,101033.19
2023-05-08T07:25:34.418Z,101035.70
2023-05-08T07:28:01.426Z,101034.63
2023-05-08T07:30:28.376Z,101037.77
2023-05-08T07:32:55.044Z,101037.84
2023-05-08T07:35:22.253Z,101039.56
2023-05-08T07:37:48.940Z,101039.42
2023-05-08T07:40:15.925Z,101043.17
2023-05-08T07:42:43.850Z,101048.06
2023-05-08T07:45:13.270Z,101048.15
2023-05-08T07:47:50.191Z,101054.20
2023-05-08T07:50:17.766Z,101051.79
2023-05-08T07:52:45.929Z,101054.88
2023-05-08T07:55:14.364Z,101057.97
2023-05-08T07:57:43.650Z,101058.26
2023-05-08T08:00:13.922Z,101063.73
2023-05-08T08:02:41.760Z,101063.00
2023-05-08T08:05:09.166Z,101063.23
2023-05-08T08:07:36.010Z,101062.20
2023-05-08T08:10:04.615Z,101065.55
2023-05-08T08:12:32.099Z,101066.98
2023-05-08T08:14:58.826Z,101067.34
2023-05-08T08:17:28.473Z,101073.21
2023-05-08T08:19:56.585Z,101074.98
2023-05-08T08:22:24.565Z,101073.21
2023-05-08T08:24:53.345Z,101073.05
2023-05-08T08:27:21.821Z,101073.58
2023-05-08T08:29:48.479Z,101073.88
2023-05-08T08:32:15.080Z,101076.77
2023-05-08T08:34:41.649Z,101078.28
2023-05-08T08:37:08.317Z,101077.05
2023-05-08T08:39:35.055Z,101077.09
2023-05-08T08:42:02.057Z,101079.82
2023-05-08T08:44:28.710Z,101074.94
2023-05-08T08:47:00.123Z,101073.83
2023-05-08T08:49:32.139Z,101073.25
2023-05-08T08:52:03.540Z,101074.43
2023-05-08T08:54:34.967Z,101072.77
2023-05-08T08:57:08.091Z,101077.75
2023-05-08T08:59:38.764Z,101078.27
2023-05-08T09:02:15.089Z,101076.16
2023-05-08T09:04:41.816Z,101076.25
2023-05-08T09:07:10.198Z,101077.95
2023-05-08T09:09:40.996Z,101078.35
2023-05-08T09:12:07.990Z,101080.50
2023-05-08T09:14:34.722Z,101085.50
2023-05-08T09:17:01.795Z,101081.06
2023-05-08T09:19:29.201Z,101078.57
2023-05-08T09:22:00.709Z,101080.21
2023-05-08T09:25:00.456Z,101083.64
2023-05-08T09:27:28.878Z,101086.43
2023-05-08T09:30:08.785Z,101084.77
2023-05-08T09:32:38.054Z,101088.52
2023-05-08T09:35:06.903Z,101087.88
2023-05-08T09:37:34.058Z,101089.45
2023-05-08T09:40:21.425Z,101088.23
2023-05-08T09:42:50.230Z,101092.09
2023-05-08T09:45:32.441Z,101093.53
2023-05-08T09:47:59.499Z,101097.20
2023-05-08T09:50:27.779Z,101096.58
2023-05-08T09:52:55.029Z,101092.88
2023-05-08T09:55:21.679Z,101097.35
2023-05-08T09:57:59.744Z,101096.15
2023-05-08T10:00:28.007Z,101097.86
2023-05-08T10:03:02.302Z,101098.81
2023-05-08T10:05:33.043Z,101093.14
2023-05-08T10:08:19.023Z,101095.70
2023-05-08T10:10:46.033Z,101095.28
2023-05-08T10:13:13.726Z,101097.04
2023-05-08T10:15:42.609Z,101095.04
2023-05-08T10:18:12.024Z,101093.05
2023-05-08T10:20:45.212Z,101091.55
2023-05-08T10:23:17.153Z,101091.91
2023-05-08T10:25:46.518Z,101088.95
2023-05-08T10:28:45.402Z,101090.55
2023-05-08T10:31:17.597Z,101090.79
2023-05-08T10:33:46.866Z,101083.64
2023-05-08T10:36:14.977Z,101080.52
2023-05-08T10:38:42.294Z,101079.83
2023-05-08T10:41:10.979Z,101074.31
2023-05-08T10:43:42.549Z,101074.20
2023-05-08T10:46:54.554Z,101069.15
2023-05-08T10:49:34.336Z,101063.10
2023-05-08T10:52:14.061Z,101059.23
2023-05-08T10:55:02.275Z,101060.08
2023-05-08T10:57:29.127Z,101056.27
2023-05-08T10:59:55.865Z,101061.92
2023-05-08T11:02:37.184Z,101058.02
2023-05-08T11:05:17.818Z,101054.52
2023-05-08T11:07:54.807Z,101055.94
2023-05-08T11:10:22.156Z,101051.90
2023-05-08T11:12:53.562Z,101052.63
2023-05-08T11:15:36.497Z,101052.12
2023-05-08T11:18:11.781Z,101055.27
2023-05-08T11:20:54.487Z,101057.45
2023-05-08T11:23:22.949Z,101058.13
2023-05-08T11:26:12.280Z,101059.91
2023-05-08T11:28:41.243Z,101059.34
2023-05-08T11:31:09.179Z,101064.54
2023-05-08T11:33:41.276Z,101058.30
2023-05-08T11:36:14.073Z,101065.16
2023-05-08T11:38:43.665Z,101063.73
2023-05-08T11:41:21.674Z,101063.27
2023-05-08T11:44:10.496Z,101064.55
2023-05-08T11:46:53.521Z,101066.11
2023-05-08T11:49:27.116Z,101064.55
2023-05-08T11:51:58.816Z,101069.61
2023-05-08T11:54:29.334Z,101071.14
2023-05-08T11:56:56.112Z,101071.01
2023-05-08T11:59:22.754Z,101069.80
2023-05-08T12:02:06.873Z,101063.05
2023-05-08T12:04:43.468Z,101058.07
2023-05-08T12:07:10.095Z,101056.57
2023-05-08T12:09:38.391Z,101058.03
2023-05-08T12:12:05.527Z,101054.71
2023-05-08T12:14:34.702Z,101058.95
2023-05-08T12:17:02.902Z,101054.41
2023-05-08T12:19:29.752Z,101055.48
2023-05-08T12:21:57.411Z,101056.38
2023-05-08T12:24:26.302Z,101055.20
2023-05-08T12:26:56.714Z,101056.42
2023-05-08T12:29:24.271Z,101058.67
2023-05-08T12:31:52.773Z,101058.48
2023-05-08T12:34:20.448Z,101056.20
2023-05-08T12:36:47.101Z,101056.42
2023-05-08T12:39:18.027Z,101058.72
2023-05-08T12:41:51.803Z,101060.77
2023-05-08T12:44:20.670Z,101062.45
2023-05-08T12:46:50.960Z,101060.77
2023-05-08T12:49:31.610Z,101063.04
2023-05-08T12:52:09.851Z,101062.61
2023-05-08T12:54:38.332Z,101063.64
2023-05-08T12:57:12.853Z,101065.48
2023-05-08T12:59:40.978Z,101063.02
2023-05-08T13:02:19.428Z,101061.64
2023-05-08T13:04:46.869Z,101062.02
2023-05-08T13:07:13.974Z,101061.26
2023-05-08T13:09:56.759Z,101057.65
2023-05-08T13:12:23.443Z,101054.69
2023-05-08T13:14:50.108Z,101051.95
2023-05-08T13:17:18.692Z,101050.45
2023-05-08T13:19:45.371Z,101041.97
2023-05-08T13:22:11.986Z,101038.09
2023-05-08T13:24:38.733Z,101035.20
2023-05-08T13:27:05.378Z,101030.10
2023-05-08T13:29:32.032Z,101026.70
2023-05-08T13:31:58.702Z,101030.86
2023-05-08T13:34:25.739Z,101025.98
2023-05-08T13:36:53.006Z,101023.50
2023-05-08T13:39:19.730Z,101021.92
2023-05-08T13:41:46.383Z,101022.61
2023-05-08T13:44:12.999Z,101020.61
2023-05-08T13:46:39.591Z,101019.50
2023-05-08T13:49:06.200Z,101019.27
2023-05-08T13:51:32.821Z,101017.38
2023-05-08T13:53:59.522Z,101016.64
2023-05-08T13:56:26.187Z,101015.31
2023-05-08T13:58:52.934Z,101012.98
2023-05-08T14:01:26.633Z,101010.02
2023-05-08T14:03:55.218Z,101014.89
2023-05-08T14:06:22.290Z,101015.66
2023-05-08T14:08:51.425Z,101015.02
2023-05-08T14:11:19.583Z,101015.62
2023-05-08T14:13:46.227Z,101015.62
2023-05-08T14:16:14.515Z,101018.77
2023-05-08T14:18:41.243Z,101021.40
2023-05-08T14:21:07.888Z,101025.80
2023-05-08T14:23:35.783Z,101016.09
2023-05-08T14:26:02.550Z,101012.48
2023-05-08T14:28:29.147Z,101003.72
2023-05-08T14:30:56.286Z,101000.82
2023-05-08T14:33:23.020Z,101000.23
2023-05-08T14:35:49.689Z,100998.86
2023-05-08T14:38:16.321Z,100991.73
2023-05-08T14:40:43.001Z,100989.57
2023-05-08T14:43:09.643Z,100982.91
2023-05-08T14:45:36.370Z,100982.63
2023-05-08T14:48:03.109Z,100984.59
2023-05-08T14:50:29.845Z,100982.86
2023-05-08T14:52:56.639Z,100977.80
2023-05-08T14:55:24.044Z,100971.60
2023-05-08T14:57:50.901Z,100973.42
2023-05-08T15:00:18.334Z,100972.80
2023-05-08T15:02:45.382Z,100977.30
2023-05-08T15:07:58.826Z,100976.14
2023-05-08T15:10:25.476Z,100972.73
2023-05-08T15:12:52.224Z,100971.50
2023-05-08T15:15:18.876Z,100969.83
2023-05-08T15:17:45.851Z,100971.83
2023-05-08T15:20:12.582Z,100972.25
2023-05-08T15:22:39.252Z,100968.89
2023-05-08T15:25:06.817Z,100974.06
2023-05-08T15:27:33.495Z,100973.77
2023-05-08T15:30:00.278Z,100973.58
2023-05-08T15:32:26.982Z,100974.64
2023-05-08T15:34:53.655Z,100975.92
2023-05-08T15:37:20.360Z,100977.35
2023-05-08T15:39:47.077Z,100977.54
2023-05-08T15:42:13.696Z,100978.14
2023-05-08T15:47:09.945Z,100981.17
2023-05-08T15:49:36.758Z,100981.46
2023-05-08T15:52:03.637Z,100980.16
2023-05-08T15:54:30.454Z,100979.55
2023-05-08T15:56:57.137Z,100975.52
2023-05-08T15:59:23.765Z,100981.00
2023-05-08T16:01:52.087Z,100981.50
2023-05-08T16:04:19.628Z,100981.42
2023-05-08T16:06:46.343Z,100983.98
2023-05-08T16:09:12.953Z,100987.58
2023-05-08T16:11:39.608Z,100988.52
2023-05-08T16:14:06.232Z,100985.95
2023-05-08T16:16:33.054Z,100989.59
2023-05-08T16:19:02.259Z,100988.48
2023-05-08T16:21:28.891Z,100991.36
2023-05-08T16:23:56.113Z,100989.52
2023-05-08T16:26:23.457Z,100986.77
2023-05-08T16:28:50.097Z,100985.52
2023-05-08T16:31:17.184Z,100986.10
2023-05-08T16:33:44.096Z,100983.25
2023-05-08T16:36:10.821Z,100987.02
2023-05-08T16:38:37.537Z,100984.44
2023-05-08T16:41:06.235Z,100986.70
2023-05-08T16:43:33.164Z,100988.20
2023-05-08T16:45:59.884Z,100992.46
2023-05-08T16:48:27.990Z,100993.41
2023-05-08T16:50:54.663Z,100998.18
2023-05-08T16:53:21.413Z,100998.58
2023-05-08T16:55:48.119Z,100996.23
2023-05-08T16:58:16.004Z,100997.44
2023-05-08T17:00:42.671Z,100998.48
2023-05-08T17:03:09.532Z,100999.77
2023-05-08T17:05:37.186Z,100999.75
2023-05-08T17:08:03.968Z,100999.23
2023-05-08T17:10:30.700Z,101000.48
2023-05-08T17:12:57.693Z,101001.63
2023-05-08T17:15:24.473Z,101001.73
2023-05-08T17:17:51.420Z,101002.14
2023-05-08T17:20:21.313Z,101009.95
2023-05-08T17:22:47.977Z,101011.80
2023-05-08T17:25:14.762Z,101017.08
2023-05-08T17:27:41.385Z,101021.89
2023-05-08T17:30:12.178Z,101021.90
2023-05-08T17:32:40.589Z,101024.33
2023-05-08T17:35:07.634Z,101027.79
2023-05-08T17:37:34.299Z,101030.09
2023-05-08T17:40:00.950Z,101034.53
2023-05-08T17:42:27.546Z,101036.61
2023-05-08T17:44:54.150Z,101037.73
2023-05-08T17:47:20.890Z,101042.85
2023-05-08T17:49:47.564Z,101041.80
2023-05-08T17:52:14.468Z,101050.17
2023-05-08T17:54:41.096Z,101049.17
2023-05-08T17:57:07.702Z,101049.17
2023-05-08T17:59:34.362Z,101048.89
2023-05-08T18:02:01.047Z,101048.14
2023-05-08T18:04:27.793Z,101050.46
2023-05-08T18:06:54.534Z,101048.34
2023-05-08T18:09:21.221Z,101047.84
2023-05-08T18:11:48.028Z,101051.49
2023-05-08T18:14:14.690Z,101052.66
2023-05-08T18:16:41.404Z,101053.86
2023-05-08T18:19:08.142Z,101059.48
2023-05-08T18:21:34.777Z,101060.89
2023-05-08T18:24:01.420Z,101064.98
2023-05-08T18:26:28.054Z,101067.43
2023-05-08T18:28:54.665Z,101065.45
2023-05-08T18:31:21.433Z,101070.58
2023-05-08T18:33:48.070Z,101071.27
2023-05-08T18:36:14.748Z,101074.84
2023-05-08T18:38:41.936Z,101073.98
2023-05-08T18:41:08.617Z,101074.83
2023-05-08T18:43:35.328Z,101082.98
2023-05-08T18:46:12.618Z,101089.36
2023-05-08T18:48:42.054Z,101090.58
2023-05-08T18:51:09.115Z,101091.40
2023-05-08T18:53:40.686Z,101094.13
2023-05-08T18:56:07.404Z,101097.66
2023-05-08T18:58:34.086Z,101098.82
2023-05-08T19:01:01.467Z,101098.88
2023-05-08T19:03:28.490Z,101102.25
2023-05-08T19:05:55.422Z,101105.34
2023-05-08T19:08:22.039Z,101107.83
2023-05-08T19:10:48.796Z,101108.72
2023-05-08T19:13:15.718Z,101109.79
2023-05-08T19:15:42.400Z,101110.52
2023-05-08T19:18:09.258Z,101112.22
2023-05-08T19:20:36.040Z,101114.52
2023-05-08T19:23:02.643Z,101116.05
2023-05-08T19:25:29.325Z,101116.61
2023-05-08T19:27:57.508Z,101112.71
2023-05-08T19:30:24.354Z,101115.48
2023-05-08T19:32:50.977Z,101113.11
2023-05-08T19:35:17.600Z,101119.36
2023-05-08T19:37:44.258Z,101119.98
2023-05-08T19:40:11.542Z,101119.62
2023-05-08T19:42:38.444Z,101119.73
2023-05-08T19:45:05.769Z,101120.46
2023-05-08T19:47:33.669Z,101122.63
2023-05-08T19:50:00.553Z,101128.78
2023-05-08T19:52:33.466Z,101128.93
2023-05-08T19:55:02.174Z,101135.18
2023-05-08T19:57:30.908Z,101139.61
2023-05-08T19:59:58.081Z,101142.30
2023-05-08T20:02:24.971Z,101144.15
2023-05-08T20:05:14.421Z,101145.41
2023-05-08T20:07:45.243Z,101146.71
2023-05-08T20:10:12.436Z,101147.13
2023-05-08T20:12:39.488Z,101148.75
2023-05-08T20:15:06.865Z,101148.12
2023-05-08T20:17:33.596Z,101150.55
2023-05-08T20:20:00.348Z,101150.13
2023-05-08T20:22:28.956Z,101147.35
2023-05-08T20:24:57.614Z,101150.36
2023-05-08T20:27:24.894Z,101149.20
2023-05-08T20:29:53.601Z,101149.91
2023-05-08T20:32:20.880Z,101147.25
2023-05-08T20:34:47.779Z,101148.71
2023-05-08T20:37:16.089Z,101146.55
2023-05-08T20:39:43.063Z,101148.86
2023-05-08T20:42:09.648Z,101150.37
2023-05-08T20:44:36.245Z,101145.76
2023-05-08T20:47:02.843Z,101144.67
2023-05-08T20:49:29.566Z,101142.97
2023-05-08T20:51:56.306Z,101144.82
2023-05-08T20:54:22.953Z,101147.02
2023-05-08T20:56:49.720Z,101143.40
2023-05-08T20:59:16.840Z,101140.43
2023-05-08T21:01:43.605Z,101137.48
2023-05-08T21:04:10.612Z,101135.42
2023-05-08T21:06:37.209Z,101133.67
2023-05-08T21:09:06.508Z,101129.09
2023-05-08T21:11:33.729Z,101130.75
2023-05-08T21:14:00.497Z,101129.76
2023-05-08T21:16:27.250Z,101127.93
2023-05-08T21:18:55.472Z,101124.91
2023-05-08T21:21:24.279Z,101125.64
2023-05-08T21:23:50.889Z,101127.31
2023-05-08T21:26:19.914Z,101130.30
2023-05-08T21:28:46.669Z,101132.45
2023-05-08T21:31:13.291Z,101134.73
2023-05-08T21:33:39.992Z,101132.55
2023-05-08T21:36:06.747Z,101129.55
2023-05-08T21:38:34.155Z,101127.64
2023-05-08T21:41:08.441Z,101121.20
2023-05-08T21:43:36.128Z,101121.32
2023-05-08T21:46:07.371Z,101120.81
2023-05-08T21:48:34.564Z,101121.09
2023-05-08T21:51:01.946Z,101119.45
2023-05-08T21:53:28.783Z,101119.05
2023-05-08T21:55:55.479Z,101117.17
2023-05-08T21:58:22.114Z,101114.77
2023-05-08T22:00:48.893Z,101119.06
2023-05-08T22:03:15.889Z,101115.77
2023-05-08T22:05:42.675Z,101117.20
2023-05-08T22:08:09.423Z,101119.35
2023-05-08T22:10:39.503Z,101119.21
2023-05-08T22:13:07.581Z,101121.53
2023-05-08T22:15:34.582Z,101120.46
2023-05-08T22:18:02.764Z,101126.94
2023-05-08T22:20:30.407Z,101127.02
2023-05-08T22:22:57.120Z,101126.26
2023-05-08T22:25:25.273Z,101131.69
2023-05-08T22:27:52.136Z,101133.33
2023-05-08T22:30:18.723Z,101133.30
2023-05-08T22:32:53.387Z,101126.31
2023-05-08T22:35:22.556Z,101126.73
2023-05-08T22:37:49.302Z,101122.52
2023-05-08T22:40:16.098Z,101116.96
2023-05-08T22:42:43.913Z,101117.35
2023-05-08T22:45:12.370Z,101116.95
2023-05-08T22:47:39.752Z,101117.73
2023-05-08T22:50:08.655Z,101117.06
2023-05-08T22:52:36.170Z,101115.17
2023-05-08T22:55:06.639Z,101114.30
2023-05-08T22:57:33.288Z,101118.95
2023-05-08T22:59:59.955Z,101120.16
2023-05-08T23:02:32.525Z,101119.36
2023-05-08T23:05:00.019Z,101111.95
2023-05-08T23:07:26.664Z,101116.30
2023-05-08T23:09:53.302Z,101112.41
2023-05-08T23:12:19.929Z,101109.83
2023-05-08T23:14:46.564Z,101107.18
2023-05-08T23:17:14.147Z,101107.09
2023-05-08T23:19:42.258Z,101105.50
2023-05-08T23:22:09.542Z,101104.94
2023-05-08T23:24:36.620Z,101105.64
2023-05-08T23:27:03.428Z,101100.77
2023-05-08T23:29:33.337Z,101100.95
2023-05-08T23:32:00.179Z,101095.83
2023-05-08T23:34:26.820Z,101094.02
2023-05-08T23:36:53.461Z,101094.35
2023-05-08T23:39:20.100Z,101090.59
2023-05-08T23:41:46.763Z,101084.57
2023-05-08T23:44:14.585Z,101086.52
2023-05-08T23:46:41.856Z,101084.16
2023-05-08T23:49:08.674Z,101081.60
2023-05-08T23:51:35.553Z,101080.90
2023-05-08T23:54:02.293Z,101080.90
2023-05-08T23:56:30.174Z,101076.52
2023-05-08T23:58:57.175Z,101078.87
